createdAt,value
2022-11-21T00:00:23.403Z,74.60
2022-11-21T00:03:08.178Z,78.90
2022-11-21T00:05:42.505Z,83.90
2022-11-21T00:08:16.433Z,93.50
2022-11-21T00:10:49.146Z,96.50
2022-11-21T00:13:23.543Z,99.00
2022-11-21T00:15:56.059Z,96.40
2022-11-21T00:18:28.759Z,86.30
2022-11-21T00:21:04.431Z,89.10
2022-11-21T00:23:36.817Z,95.00
2022-11-21T00:26:10.744Z,98.60
2022-11-21T00:28:43.902Z,97.30
2022-11-21T00:31:24.091Z,99.80
2022-11-21T00:33:56.793Z,94.70
2022-11-21T00:36:29.832Z,94.50
2022-11-21T00:39:03.190Z,109.20
2022-11-21T00:41:36.184Z,90.90
2022-11-21T00:44:10.410Z,116.20
2022-11-21T00:46:46.169Z,110.50
2022-11-21T00:49:19.134Z,103.20
2022-11-21T00:51:51.379Z,110.40
2022-11-21T00:54:25.772Z,92.10
2022-11-21T00:56:59.318Z,65.00
2022-11-21T00:59:33.688Z,52.70
2022-11-21T01:02:08.499Z,43.20
2022-11-21T01:04:41.211Z,49.00
2022-11-21T01:07:15.917Z,40.20
2022-11-21T01:09:48.544Z,44.60
2022-11-21T01:12:20.754Z,43.30
2022-11-21T01:14:54.907Z,41.00
2022-11-21T01:17:26.795Z,39.60
2022-11-21T01:20:01.464Z,39.80
2022-11-21T01:22:33.483Z,39.10
2022-11-21T01:25:06.676Z,39.40
2022-11-21T01:27:41.300Z,38.90
2022-11-21T01:30:15.601Z,39.30
2022-11-21T01:32:51.107Z,41.80
2022-11-21T01:35:26.526Z,41.40
2022-11-21T01:37:58.426Z,41.50
2022-11-21T01:40:32.720Z,42.60
2022-11-21T01:43:11.824Z,43.00
2022-11-21T01:46:00.018Z,43.40
2022-11-21T01:48:35.809Z,44.70
2022-11-21T01:51:11.545Z,44.50
2022-11-21T01:53:45.836Z,46.00
2022-11-21T01:56:18.188Z,45.60
2022-11-21T01:58:51.766Z,44.60
2022-11-21T02:01:25.632Z,45.60
2022-11-21T02:03:58.647Z,45.20
2022-11-21T02:06:30.467Z,44.20
2022-11-21T02:09:04.975Z,43.80
2022-11-21T02:11:41.026Z,45.00
2022-11-21T02:14:14.991Z,45.10
2022-11-21T02:16:50.976Z,47.20
2022-11-21T02:19:28.772Z,47.80
2022-11-21T02:22:06.134Z,47.70
2022-11-21T02:24:43.344Z,50.50
2022-11-21T02:27:16.208Z,50.10
2022-11-21T02:29:48.313Z,49.30
2022-11-21T02:32:26.305Z,48.40
2022-11-21T02:34:58.450Z,50.20
2022-11-21T02:37:30.971Z,49.10
2022-11-21T02:40:05.178Z,50.00
2022-11-21T02:42:40.360Z,51.00
2022-11-21T02:45:17.528Z,53.50
2022-11-21T02:47:52.101Z,56.40
2022-11-21T02:50:28.513Z,55.60
2022-11-21T02:53:00.946Z,56.20
2022-11-21T02:55:35.225Z,57.90
2022-11-21T02:58:08.536Z,59.40
2022-11-21T03:00:43.584Z,59.10
2022-11-21T03:03:18.010Z,58.10
2022-11-21T03:05:52.638Z,55.40
2022-11-21T03:08:24.574Z,53.50
2022-11-21T03:10:59.558Z,51.80
2022-11-21T03:13:32.138Z,50.90
2022-11-21T03:16:05.845Z,51.60
2022-11-21T03:18:41.081Z,52.30
2022-11-21T03:21:13.109Z,51.80
2022-11-21T03:23:45.726Z,52.80
2022-11-21T03:26:21.201Z,52.40
2022-11-21T03:28:55.687Z,52.30
2022-11-21T03:31:27.952Z,52.40
2022-11-21T03:34:00.815Z,51.10
2022-11-21T03:36:36.740Z,51.20
2022-11-21T03:39:09.440Z,50.80
2022-11-21T03:41:42.138Z,50.60
2022-11-21T03:44:15.362Z,50.40
2022-11-21T03:46:48.493Z,55.20
2022-11-21T03:49:21.635Z,70.40
2022-11-21T03:51:56.967Z,74.00
2022-11-21T03:54:29.971Z,71.90
2022-11-21T03:57:06.807Z,73.70
2022-11-21T03:59:39.014Z,74.70
2022-11-21T04:02:12.115Z,74.60
2022-11-21T04:04:48.702Z,72.80
2022-11-21T04:07:22.296Z,73.70
2022-11-21T04:09:54.299Z,72.50
2022-11-21T04:12:26.130Z,71.50
2022-11-21T04:14:58.839Z,70.80
2022-11-21T04:17:32.479Z,66.80
2022-11-21T04:20:05.105Z,62.90
2022-11-21T04:22:39.205Z,61.60
2022-11-21T04:25:13.775Z,60.50
2022-11-21T04:27:46.279Z,62.10
2022-11-21T04:30:21.743Z,63.50
2022-11-21T04:32:56.742Z,63.00
2022-11-21T04:35:29.471Z,61.70
2022-11-21T04:38:05.873Z,60.20
2022-11-21T04:40:40.136Z,66.10
2022-11-21T04:43:11.997Z,62.90
2022-11-21T04:45:46.943Z,62.50
2022-11-21T04:48:21.546Z,61.70
2022-11-21T04:50:55.873Z,63.10
2022-11-21T04:53:28.653Z,63.30
2022-11-21T04:56:02.995Z,63.80
2022-11-21T04:58:37.056Z,65.80
2022-11-21T05:01:16.628Z,64.70
2022-11-21T05:03:49.404Z,63.10
2022-11-21T05:06:25.562Z,62.70
2022-11-21T05:08:57.597Z,61.40
2022-11-21T05:11:49.479Z,60.60
2022-11-21T05:14:21.571Z,61.00
2022-11-21T05:16:56.913Z,62.70
2022-11-21T05:19:32.052Z,63.40
2022-11-21T05:22:05.232Z,63.60
2022-11-21T05:24:37.365Z,65.50
2022-11-21T05:27:09.926Z,64.30
2022-11-21T05:29:42.555Z,68.00
2022-11-21T05:32:15.157Z,72.60
2022-11-21T05:34:50.539Z,72.40
2022-11-21T05:37:24.957Z,72.00
2022-11-21T05:39:57.461Z,67.20
2022-11-21T05:42:43.335Z,68.70
2022-11-21T05:45:17.548Z,64.00
2022-11-21T05:47:50.056Z,61.30
2022-11-21T05:50:23.866Z,61.00
2022-11-21T05:52:55.962Z,61.90
2022-11-21T05:55:28.803Z,62.30
2022-11-21T05:58:02.596Z,62.90
2022-11-21T06:00:34.525Z,64.90
2022-11-21T06:03:25.524Z,67.50
2022-11-21T06:06:06.963Z,73.80
2022-11-21T06:08:40.271Z,72.60
2022-11-21T06:11:16.761Z,75.30
2022-11-21T06:13:50.839Z,79.30
2022-11-21T06:16:23.167Z,78.90
2022-11-21T06:18:58.831Z,81.50
2022-11-21T06:21:34.462Z,79.30
2022-11-21T06:24:08.457Z,81.40
2022-11-21T06:26:45.176Z,87.20
2022-11-21T06:29:17.535Z,86.70
2022-11-21T06:31:51.240Z,84.70
2022-11-21T06:34:23.070Z,87.60
2022-11-21T06:36:58.421Z,89.20
2022-11-21T06:39:30.800Z,90.90
2022-11-21T06:42:05.933Z,97.20
2022-11-21T06:44:38.606Z,111.00
2022-11-21T06:47:11.480Z,116.20
2022-11-21T06:49:44.821Z,114.90
2022-11-21T06:52:19.211Z,118.70
2022-11-21T06:54:53.705Z,108.00
2022-11-21T06:57:27.037Z,106.50
2022-11-21T07:00:00.726Z,98.70
2022-11-21T07:02:34.813Z,99.60
2022-11-21T07:05:07.299Z,97.20
2022-11-21T07:07:41.830Z,94.10
2022-11-21T07:10:16.687Z,91.30
2022-11-21T07:13:07.077Z,92.30
2022-11-21T07:15:39.499Z,90.00
2022-11-21T07:18:13.503Z,91.10
2022-11-21T07:20:45.340Z,89.80
2022-11-21T07:23:19.224Z,89.40
2022-11-21T07:25:51.915Z,98.30
2022-11-21T07:28:25.670Z,98.70
2022-11-21T07:31:01.809Z,103.90
2022-11-21T07:33:38.745Z,101.00
2022-11-21T07:36:14.131Z,100.40
2022-11-21T07:38:46.907Z,102.30
2022-11-21T07:41:19.245Z,96.60
2022-11-21T07:43:51.837Z,93.60
2022-11-21T07:46:24.915Z,95.00
2022-11-21T07:49:02.926Z,92.10
2022-11-21T07:51:36.235Z,89.90
2022-11-21T07:54:09.997Z,88.20
2022-11-21T07:56:42.384Z,88.00
2022-11-21T07:59:15.084Z,83.90
2022-11-21T08:01:47.991Z,86.10
2022-11-21T08:04:21.869Z,82.90
2022-11-21T08:06:53.906Z,81.50
2022-11-21T08:09:27.373Z,80.70
2022-11-21T08:12:03.922Z,80.70
2022-11-21T08:14:37.636Z,78.60
2022-11-21T08:17:10.164Z,77.80
2022-11-21T08:19:41.972Z,75.70
2022-11-21T08:22:15.388Z,75.20
2022-11-21T08:24:49.744Z,78.80
2022-11-21T08:27:21.827Z,78.60
2022-11-21T08:29:55.454Z,78.90
2022-11-21T08:32:28.779Z,80.60
2022-11-21T08:35:01.072Z,75.80
2022-11-21T08:37:33.993Z,66.70
2022-11-21T08:40:08.957Z,67.80
2022-11-21T08:42:41.629Z,65.70
2022-11-21T08:45:14.132Z,61.40
2022-11-21T08:47:46.780Z,61.10
2022-11-21T08:50:20.039Z,60.10
2022-11-21T08:52:55.972Z,59.60
2022-11-21T08:55:29.000Z,58.20
2022-11-21T08:58:03.863Z,59.50
2022-11-21T09:00:36.528Z,58.40
2022-11-21T09:03:09.895Z,56.90
2022-11-21T09:05:42.964Z,56.50
2022-11-21T09:08:15.689Z,57.30
2022-11-21T09:10:49.981Z,56.20
2022-11-21T09:13:23.832Z,55.80
2022-11-21T09:16:19.083Z,55.10
2022-11-21T09:18:54.457Z,56.90
2022-11-21T09:21:26.265Z,57.40
2022-11-21T09:23:58.691Z,56.90
2022-11-21T09:26:31.194Z,57.10
2022-11-21T09:29:04.914Z,59.10
2022-11-21T09:31:39.129Z,58.40
2022-11-21T09:34:12.702Z,58.40
2022-11-21T09:36:47.014Z,57.90
2022-11-21T09:39:21.203Z,57.70
2022-11-21T09:42:00.807Z,58.10
2022-11-21T09:45:02.707Z,58.90
2022-11-21T09:47:36.362Z,58.30
2022-11-21T09:50:17.786Z,56.30
2022-11-21T09:52:55.948Z,56.50
2022-11-21T09:55:33.831Z,58.90
2022-11-21T09:58:07.962Z,59.90
2022-11-21T10:00:39.845Z,58.10
2022-11-21T10:03:20.912Z,58.10
2022-11-21T10:05:57.753Z,59.00
2022-11-21T10:08:42.830Z,58.10
2022-11-21T10:11:22.960Z,57.70
2022-11-21T10:14:07.040Z,55.70
2022-11-21T10:16:45.823Z,54.80
2022-11-21T10:19:25.349Z,53.00
2022-11-21T10:22:17.435Z,56.20
2022-11-21T10:24:57.106Z,54.00
2022-11-21T10:27:35.930Z,52.00
2022-11-21T10:30:14.687Z,49.70
2022-11-21T10:32:47.638Z,48.90
2022-11-21T10:35:22.437Z,50.20
2022-11-21T10:37:55.679Z,49.20
2022-11-21T10:40:38.752Z,50.10
2022-11-21T10:43:41.437Z,48.80
2022-11-21T10:46:15.721Z,49.10
2022-11-21T10:49:00.338Z,46.70
2022-11-21T10:51:47.320Z,48.40
2022-11-21T10:54:35.115Z,49.40
2022-11-21T10:57:14.573Z,49.20
2022-11-21T11:00:00.878Z,48.30
2022-11-21T11:02:33.147Z,48.10
2022-11-21T11:05:22.684Z,47.90
2022-11-21T11:08:07.068Z,46.30
2022-11-21T11:10:40.867Z,46.40
2022-11-21T11:13:47.437Z,47.20
2022-11-21T11:16:22.619Z,47.30
2022-11-21T11:18:59.526Z,46.80
2022-11-21T11:21:44.319Z,48.90
2022-11-21T11:24:29.063Z,50.70
2022-11-21T11:27:03.535Z,54.50
2022-11-21T11:29:36.641Z,54.80
2022-11-21T11:32:21.132Z,52.80
2022-11-21T11:35:03.029Z,53.30
2022-11-21T11:37:41.359Z,60.80
2022-11-21T11:40:23.009Z,63.80
2022-11-21T11:43:41.236Z,95.90
2022-11-21T11:46:49.866Z,65.10
2022-11-21T11:50:00.852Z,77.70
2022-11-21T11:52:37.645Z,109.90
2022-11-21T11:55:17.753Z,48.30
2022-11-21T11:57:53.230Z,43.40
2022-11-21T12:00:32.738Z,45.10
2022-11-21T12:03:09.838Z,43.50
2022-11-21T12:05:59.455Z,41.80
2022-11-21T12:08:42.311Z,42.50
2022-11-21T12:11:39.780Z,40.40
2022-11-21T12:14:41.163Z,40.80
2022-11-21T12:17:16.571Z,42.00
2022-11-21T12:19:50.072Z,41.90
2022-11-21T12:22:24.336Z,41.90
2022-11-21T12:24:56.827Z,43.50
2022-11-21T12:27:32.797Z,40.00
2022-11-21T12:30:49.816Z,40.30
2022-11-21T12:33:24.622Z,39.90
2022-11-21T12:36:24.523Z,40.60
2022-11-21T12:39:18.643Z,39.70
2022-11-21T12:42:13.627Z,38.50
2022-11-21T12:45:01.192Z,41.70
2022-11-21T12:48:09.394Z,42.80
2022-11-21T12:51:09.342Z,40.00
2022-11-21T12:54:03.479Z,41.40
2022-11-21T12:56:45.539Z,40.10
2022-11-21T12:59:20.299Z,38.50
2022-11-21T13:01:56.797Z,42.60
2022-11-21T13:04:31.518Z,45.90
2022-11-21T13:07:05.188Z,48.80
2022-11-21T13:09:41.802Z,48.90
2022-11-21T13:12:19.571Z,49.50
2022-11-21T13:14:57.135Z,49.60
2022-11-21T13:17:40.744Z,48.10
2022-11-21T13:20:29.390Z,48.50
2022-11-21T13:23:06.675Z,48.80
2022-11-21T13:25:41.151Z,49.40
2022-11-21T13:28:35.341Z,49.70
2022-11-21T13:31:30.427Z,50.10
2022-11-21T13:34:03.694Z,53.10
2022-11-21T13:36:44.216Z,50.50
2022-11-21T13:39:37.415Z,54.00
2022-11-21T13:42:32.284Z,54.10
2022-11-21T13:45:36.038Z,51.80
2022-11-21T13:48:40.329Z,52.30
2022-11-21T13:51:41.441Z,52.50
2022-11-21T13:54:27.647Z,53.10
2022-11-21T13:57:08.662Z,51.90
2022-11-21T13:59:50.876Z,52.90
2022-11-21T14:02:50.902Z,53.70
2022-11-21T14:05:38.188Z,52.50
2022-11-21T14:08:26.678Z,54.10
2022-11-21T14:10:59.961Z,55.40
2022-11-21T14:13:34.663Z,53.60
2022-11-21T14:16:27.860Z,55.80
2022-11-21T14:19:03.663Z,54.50
2022-11-21T14:21:39.995Z,56.70
2022-11-21T14:24:19.021Z,56.90
2022-11-21T14:26:54.785Z,50.90
2022-11-21T14:29:40.300Z,50.30
2022-11-21T14:32:18.296Z,53.60
2022-11-21T14:34:50.340Z,57.20
2022-11-21T14:37:23.081Z,72.40
2022-11-21T14:40:01.120Z,71.90
2022-11-21T14:42:38.650Z,48.70
2022-11-21T14:45:20.091Z,43.10
2022-11-21T14:47:54.462Z,34.30
2022-11-21T14:50:29.385Z,28.30
2022-11-21T14:53:03.003Z,28.80
2022-11-21T14:55:38.921Z,36.20
2022-11-21T14:58:15.245Z,33.50
2022-11-21T15:01:05.856Z,38.60
2022-11-21T15:03:38.723Z,34.20
2022-11-21T15:06:14.342Z,40.80
2022-11-21T15:11:41.923Z,29.70
2022-11-21T15:14:22.945Z,131.80
2022-11-21T15:16:57.741Z,40.30
2022-11-21T15:19:32.516Z,35.00
2022-11-21T15:22:05.908Z,32.00
2022-11-21T15:24:43.388Z,29.30
2022-11-21T15:27:33.352Z,29.40
2022-11-21T15:30:26.474Z,29.10
2022-11-21T15:33:10.192Z,34.20
2022-11-21T15:35:51.135Z,41.70
2022-11-21T15:38:32.844Z,30.80
2022-11-21T15:41:27.850Z,30.50
2022-11-21T15:44:22.337Z,24.10
2022-11-21T15:46:58.124Z,36.60
2022-11-21T15:52:26.207Z,52.90
2022-11-21T15:54:59.531Z,31.90
2022-11-21T15:57:13.777Z,26.40
2022-11-21T15:57:32.569Z,38.00
2022-11-21T16:00:08.529Z,31.20
2022-11-21T16:02:41.895Z,29.10
2022-11-21T16:05:16.256Z,30.90
2022-11-21T16:07:49.917Z,49.10
2022-11-21T16:10:27.732Z,33.10
2022-11-21T16:13:01.365Z,37.20
2022-11-21T16:15:33.361Z,30.30
2022-11-21T16:18:06.618Z,45.60
2022-11-21T16:20:38.766Z,49.20
2022-11-21T16:23:12.171Z,27.70
2022-11-21T16:25:55.916Z,30.90
2022-11-21T16:28:29.754Z,33.70
2022-11-21T16:31:03.933Z,31.60
2022-11-21T16:33:41.445Z,38.20
2022-11-21T16:36:17.167Z,38.40
2022-11-21T16:38:55.520Z,41.80
2022-11-21T16:41:27.856Z,43.50
2022-11-21T16:44:01.224Z,41.50
2022-11-21T16:46:35.305Z,45.70
2022-11-21T16:49:07.981Z,50.30
2022-11-21T16:51:41.655Z,57.70
2022-11-21T16:54:17.591Z,54.90
2022-11-21T16:56:49.692Z,50.60
2022-11-21T16:59:23.174Z,63.90
2022-11-21T17:01:57.619Z,64.20
2022-11-21T17:04:30.890Z,60.20
2022-11-21T17:07:05.017Z,50.90
2022-11-21T17:09:37.684Z,80.00
2022-11-21T17:12:10.013Z,84.30
2022-11-21T17:14:43.569Z,71.90
2022-11-21T17:17:19.947Z,71.50
2022-11-21T17:19:54.618Z,87.90
2022-11-21T17:22:26.776Z,143.50
2022-11-21T17:24:59.277Z,98.30
2022-11-21T17:27:33.510Z,107.30
2022-11-21T17:30:10.293Z,102.60
2022-11-21T17:32:43.154Z,86.70
2022-11-21T17:35:16.947Z,80.70
2022-11-21T17:37:50.831Z,80.30
2022-11-21T17:40:23.835Z,97.40
2022-11-21T17:42:56.491Z,63.60
2022-11-21T17:45:30.249Z,78.00
2022-11-21T17:48:02.493Z,67.80
2022-11-21T17:50:37.819Z,86.40
2022-11-21T17:53:10.402Z,72.80
2022-11-21T17:55:43.558Z,76.80
2022-11-21T17:58:17.028Z,56.40
2022-11-21T18:00:57.648Z,63.00
2022-11-21T18:03:30.681Z,55.80
2022-11-21T18:06:08.054Z,68.20
2022-11-21T18:08:43.449Z,46.60
2022-11-21T18:11:19.456Z,44.10
2022-11-21T18:13:52.680Z,47.70
2022-11-21T18:16:26.805Z,43.70
2022-11-21T18:19:01.662Z,48.50
2022-11-21T18:21:35.909Z,39.50
2022-11-21T18:24:10.627Z,34.70
2022-11-21T18:26:45.216Z,37.80
2022-11-21T18:29:35.839Z,54.00
2022-11-21T18:32:12.713Z,44.50
2022-11-21T18:34:46.950Z,50.60
2022-11-21T18:37:21.572Z,50.40
2022-11-21T18:39:54.064Z,55.10
2022-11-21T18:42:28.760Z,48.80
2022-11-21T18:45:01.998Z,81.30
2022-11-21T18:47:38.072Z,81.30
2022-11-21T18:50:12.103Z,96.30
2022-11-21T18:52:47.002Z,63.90
2022-11-21T18:55:22.605Z,53.20
2022-11-21T18:57:55.456Z,70.40
2022-11-21T19:00:28.076Z,59.50
2022-11-21T19:03:00.807Z,46.80
2022-11-21T19:05:33.688Z,52.40
2022-11-21T19:08:07.766Z,56.30
2022-11-21T19:10:43.685Z,46.40
2022-11-21T19:13:17.212Z,53.30
2022-11-21T19:15:49.847Z,59.00
2022-11-21T19:18:22.468Z,53.90
2022-11-21T19:20:54.697Z,56.80
2022-11-21T19:23:27.143Z,52.00
2022-11-21T19:26:03.862Z,50.60
2022-11-21T19:28:42.131Z,47.40
2022-11-21T19:31:17.524Z,52.70
2022-11-21T19:33:50.809Z,56.20
2022-11-21T19:36:25.295Z,53.60
2022-11-21T19:38:59.232Z,53.80
2022-11-21T19:41:37.201Z,49.60
2022-11-21T19:44:10.653Z,49.50
2022-11-21T19:46:48.096Z,60.40
2022-11-21T19:49:21.530Z,50.30
2022-11-21T19:51:53.459Z,62.80
2022-11-21T19:54:26.776Z,54.40
2022-11-21T19:56:59.786Z,50.40
2022-11-21T19:59:32.978Z,54.00
2022-11-21T20:02:06.449Z,47.00
2022-11-21T20:04:41.090Z,48.80
2022-11-21T20:07:14.967Z,58.90
2022-11-21T20:09:48.602Z,56.50
2022-11-21T20:12:20.845Z,56.50
2022-11-21T20:14:54.072Z,57.50
2022-11-21T20:17:27.361Z,58.00
2022-11-21T20:20:01.221Z,59.20
2022-11-21T20:22:33.865Z,60.80
2022-11-21T20:25:07.590Z,58.10
2022-11-21T20:27:39.387Z,62.50
2022-11-21T20:30:13.128Z,62.90
2022-11-21T20:32:50.259Z,60.50
2022-11-21T20:35:25.119Z,63.70
2022-11-21T20:37:59.930Z,58.50
2022-11-21T20:40:35.712Z,71.60
2022-11-21T20:43:07.844Z,57.80
2022-11-21T20:48:34.829Z,61.30
2022-11-21T20:54:03.853Z,80.40
2022-11-21T20:56:39.411Z,68.20
2022-11-21T20:59:16.237Z,74.30
2022-11-21T21:01:49.875Z,89.30
2022-11-21T21:04:22.794Z,97.50
2022-11-21T21:06:54.750Z,66.90
2022-11-21T21:09:28.714Z,69.70
2022-11-21T21:12:07.762Z,83.60
2022-11-21T21:14:43.410Z,74.30
2022-11-21T21:17:15.909Z,77.70
2022-11-21T21:19:47.845Z,74.20
2022-11-21T21:22:20.898Z,69.60
2022-11-21T21:24:53.099Z,72.30
2022-11-21T21:27:27.371Z,71.50
2022-11-21T21:30:00.090Z,74.80
2022-11-21T21:32:36.167Z,78.80
2022-11-21T21:35:10.713Z,81.40
2022-11-21T21:37:42.671Z,92.70
2022-11-21T21:40:16.383Z,74.30
2022-11-21T21:42:49.536Z,88.00
2022-11-21T21:45:22.279Z,76.00
2022-11-21T21:47:55.211Z,70.80
2022-11-21T21:50:27.770Z,77.50
2022-11-21T21:53:05.176Z,76.70
2022-11-21T21:55:39.092Z,75.20
2022-11-21T21:58:12.316Z,76.40
2022-11-21T22:00:46.445Z,83.40
2022-11-21T22:03:19.405Z,98.80
2022-11-21T22:05:53.272Z,86.90
2022-11-21T22:08:33.632Z,88.50
2022-11-21T22:11:10.820Z,80.40
2022-11-21T22:13:47.104Z,80.20
2022-11-21T22:16:19.428Z,83.30
2022-11-21T22:18:51.939Z,93.80
2022-11-21T22:21:28.091Z,103.10
2022-11-21T22:26:58.711Z,138.60
2022-11-21T22:29:32.049Z,129.20
2022-11-21T22:32:04.146Z,124.00
2022-11-21T22:34:37.559Z,112.20
2022-11-21T22:37:11.225Z,108.50
2022-11-21T22:39:49.582Z,98.00
2022-11-21T22:42:25.552Z,105.30
2022-11-21T22:44:57.554Z,101.30
2022-11-21T22:47:31.634Z,158.20
2022-11-21T22:50:04.935Z,131.30
2022-11-21T22:52:38.674Z,128.30
2022-11-21T22:55:12.313Z,136.90
2022-11-21T22:57:44.853Z,145.10
2022-11-21T23:00:20.179Z,135.90
2022-11-21T23:02:52.389Z,150.80
2022-11-21T23:05:26.761Z,149.50
2022-11-21T23:08:00.932Z,172.90
2022-11-21T23:10:34.279Z,149.00
2022-11-21T23:13:10.062Z,139.90
2022-11-21T23:15:44.678Z,133.20
2022-11-21T23:18:18.991Z,136.00
2022-11-21T23:20:54.557Z,138.80
2022-11-21T23:23:29.403Z,127.30
2022-11-21T23:26:04.858Z,132.20
2022-11-21T23:28:40.381Z,139.80
2022-11-21T23:31:15.719Z,140.40
2022-11-21T23:33:50.888Z,149.10
2022-11-21T23:36:26.471Z,236.00
2022-11-21T23:39:02.953Z,186.20
2022-11-21T23:41:37.826Z,187.80
2022-11-21T23:44:11.446Z,191.10
2022-11-21T23:46:45.937Z,173.40
2022-11-21T23:49:20.912Z,167.10
2022-11-21T23:51:56.091Z,256.70
2022-11-21T23:54:29.686Z,205.70
2022-11-21T23:57:02.174Z,217.20
2022-11-21T23:59:36.576Z,197.30
